createdAt,value
2019-05-19T00:00:46.124Z,99377.41
2019-05-19T00:05:50.752Z,99383.53
2019-05-19T00:10:55.480Z,99382.04
2019-05-19T00:16:00.202Z,99381.69
2019-05-19T00:21:04.920Z,99382.66
2019-05-19T00:26:09.805Z,99384.77
2019-05-19T00:31:14.458Z,99381.89
2019-05-19T00:36:19.663Z,99370.90
2019-05-19T00:41:24.426Z,99372.06
2019-05-19T00:46:29.245Z,99372.58
2019-05-19T00:51:33.829Z,99372.12
2019-05-19T00:56:38.805Z,99382.81
2019-05-19T01:01:43.467Z,99376.39
2019-05-19T01:06:48.126Z,99371.75
2019-05-19T01:11:52.759Z,99370.60
2019-05-19T01:16:57.461Z,99368.61
2019-05-19T01:22:02.113Z,99373.28
2019-05-19T01:27:06.795Z,99372.19
2019-05-19T01:32:12.070Z,99368.06
2019-05-19T01:37:16.767Z,99373.95
2019-05-19T01:42:21.450Z,99373.50
2019-05-19T01:47:27.091Z,99370.98
2019-05-19T01:52:31.670Z,99367.47
2019-05-19T01:57:36.334Z,99362.27
2019-05-19T02:02:40.938Z,99361.79
2019-05-19T02:07:45.580Z,99359.83
2019-05-19T02:12:50.343Z,99366.05
2019-05-19T02:17:55.113Z,99358.59
2019-05-19T02:22:59.848Z,99357.75
2019-05-19T02:28:04.611Z,99364.81
2019-05-19T02:33:09.216Z,99363.05
2019-05-19T02:38:13.899Z,99361.45
2019-05-19T02:43:18.881Z,99368.80
2019-05-19T02:48:25.066Z,99357.14
2019-05-19T02:53:30.845Z,99351.92
2019-05-19T02:58:35.730Z,99355.44
2019-05-19T03:03:40.341Z,99354.34
2019-05-19T03:08:45.040Z,99356.07
2019-05-19T03:13:49.740Z,99354.20
2019-05-19T03:18:54.458Z,99361.08
2019-05-19T03:23:59.136Z,99357.50
2019-05-19T03:29:03.940Z,99361.19
2019-05-19T03:34:08.568Z,99367.59
2019-05-19T03:39:13.240Z,99364.96
2019-05-19T03:44:17.905Z,99367.63
2019-05-19T03:49:23.554Z,99379.88
2019-05-19T03:54:28.310Z,99383.95
2019-05-19T03:59:33.049Z,99377.30
2019-05-19T04:04:37.660Z,99375.70
2019-05-19T04:09:42.255Z,99376.01
2019-05-19T04:14:46.917Z,99377.98
2019-05-19T04:19:51.567Z,99380.35
2019-05-19T04:24:56.251Z,99380.45
2019-05-19T04:30:00.887Z,99384.02
2019-05-19T04:35:05.826Z,99387.55
2019-05-19T04:40:10.786Z,99398.08
2019-05-19T04:45:15.802Z,99394.11
2019-05-19T04:50:21.587Z,99397.55
2019-05-19T04:55:26.284Z,99404.58
2019-05-19T05:00:30.878Z,99406.84
2019-05-19T05:05:35.621Z,99406.60
2019-05-19T05:10:40.306Z,99404.23
2019-05-19T05:15:45.026Z,99402.70
2019-05-19T05:20:49.696Z,99401.70
2019-05-19T05:25:54.286Z,99397.91
2019-05-19T05:30:58.978Z,99406.84
2019-05-19T05:36:03.695Z,99410.33
2019-05-19T05:41:08.380Z,99410.94
2019-05-19T05:46:13.227Z,99412.61
2019-05-19T05:51:18.945Z,99416.73
2019-05-19T05:56:23.565Z,99428.18
2019-05-19T06:01:28.112Z,99426.22
2019-05-19T06:06:32.680Z,99437.66
2019-05-19T06:11:37.335Z,99435.13
2019-05-19T06:16:41.981Z,99438.41
2019-05-19T06:21:46.650Z,99437.25
2019-05-19T06:26:51.250Z,99432.52
2019-05-19T06:31:59.607Z,99438.77
2019-05-19T06:37:04.171Z,99441.27
2019-05-19T06:42:08.800Z,99442.59
2019-05-19T06:47:13.340Z,99447.37
2019-05-19T06:52:19.128Z,99454.16
2019-05-19T06:57:23.795Z,99451.47
2019-05-19T07:02:28.570Z,99450.83
2019-05-19T07:07:33.286Z,99458.38
2019-05-19T07:12:38.160Z,99457.10
2019-05-19T07:17:42.948Z,99460.02
2019-05-19T07:22:47.652Z,99466.41
2019-05-19T07:27:52.705Z,99467.04
2019-05-19T07:32:57.625Z,99470.67
2019-05-19T07:38:02.370Z,99476.05
2019-05-19T07:43:07.258Z,99472.68
2019-05-19T07:48:11.909Z,99480.71
2019-05-19T07:53:18.559Z,99480.71
2019-05-19T07:58:23.131Z,99490.23
2019-05-19T08:03:27.730Z,99493.17
2019-05-19T08:08:32.594Z,99506.24
2019-05-19T08:13:37.427Z,99505.95
2019-05-19T08:18:42.136Z,99516.23
2019-05-19T08:24:00.041Z,99516.23
2019-05-19T08:28:53.286Z,99516.20
2019-05-19T08:33:58.212Z,99518.89
2019-05-19T08:39:04.351Z,99522.91
2019-05-19T08:44:09.170Z,99520.97
2019-05-19T08:49:13.901Z,99534.20
2019-05-19T08:54:19.561Z,99524.98
2019-05-19T08:59:24.321Z,99524.98
2019-05-19T09:04:29.321Z,99527.55
2019-05-19T09:09:34.100Z,99527.55
2019-05-19T09:14:39.020Z,99532.36
2019-05-19T09:19:43.788Z,99532.36
2019-05-19T09:24:48.489Z,99525.37
2019-05-19T09:29:53.324Z,99525.37
2019-05-19T09:34:58.079Z,99546.77
2019-05-19T09:40:03.041Z,99546.77
2019-05-19T09:45:08.599Z,99538.56
2019-05-19T09:50:14.158Z,99544.84
2019-05-19T09:55:19.742Z,99546.58
2019-05-19T10:00:24.791Z,99546.58
2019-05-19T10:05:29.521Z,99551.62
2019-05-19T10:10:54.640Z,99545.07
2019-05-19T10:15:59.311Z,99547.41
2019-05-19T10:21:04.163Z,99548.05
2019-05-19T10:26:08.978Z,99545.78
2019-05-19T10:31:13.661Z,99552.05
2019-05-19T10:36:18.421Z,99548.59
2019-05-19T10:41:23.341Z,99548.59
2019-05-19T10:46:28.567Z,99543.79
2019-05-19T10:51:33.450Z,99550.15
2019-05-19T10:56:39.381Z,99549.91
2019-05-19T11:01:44.198Z,99558.08
2019-05-19T11:06:49.076Z,99567.41
2019-05-19T11:11:53.881Z,99570.61
2019-05-19T11:16:58.612Z,99566.95
2019-05-19T11:22:03.479Z,99575.55
2019-05-19T11:27:10.043Z,99578.66
2019-05-19T11:32:15.022Z,99578.52
2019-05-19T11:37:19.790Z,99588.16
2019-05-19T11:42:24.511Z,99587.08
2019-05-19T11:47:29.451Z,99591.47
2019-05-19T11:52:34.182Z,99603.29
2019-05-19T11:57:39.904Z,99609.77
2019-05-19T12:02:44.610Z,99604.82
2019-05-19T12:07:49.418Z,99602.50
2019-05-19T12:12:54.459Z,99604.50
2019-05-19T12:17:59.101Z,99613.32
2019-05-19T12:23:04.001Z,99612.25
2019-05-19T12:28:08.755Z,99612.23
2019-05-19T12:33:13.611Z,99612.81
2019-05-19T12:38:18.420Z,99611.63
2019-05-19T12:43:23.360Z,99618.86
2019-05-19T12:48:28.080Z,99625.14
2019-05-19T12:53:33.016Z,99617.78
2019-05-19T12:58:38.847Z,99620.70
2019-05-19T13:03:43.630Z,99618.71
2019-05-19T13:08:48.476Z,99620.73
2019-05-19T13:13:53.559Z,99618.77
2019-05-19T13:18:58.709Z,99618.75
2019-05-19T13:24:03.492Z,99614.25
2019-05-19T13:29:08.318Z,99627.12
2019-05-19T13:34:13.142Z,99627.53
2019-05-19T13:39:17.881Z,99635.69
2019-05-19T13:44:22.692Z,99632.56
2019-05-19T13:49:27.520Z,99638.75
2019-05-19T13:54:32.371Z,99638.27
2019-05-19T13:59:38.062Z,99636.02
2019-05-19T14:04:42.701Z,99637.80
2019-05-19T14:09:47.521Z,99640.98
2019-05-19T14:14:52.378Z,99645.70
2019-05-19T14:19:57.121Z,99643.72
2019-05-19T14:25:02.101Z,99642.30
2019-05-19T14:30:07.462Z,99643.48
2019-05-19T14:35:12.458Z,99642.55
2019-05-19T14:40:17.402Z,99644.58
2019-05-19T14:45:22.375Z,99647.16
2019-05-19T14:50:27.540Z,99642.25
2019-05-19T14:55:32.418Z,99642.81
2019-05-19T15:00:37.386Z,99641.02
2019-05-19T15:05:42.085Z,99651.03
2019-05-19T15:10:46.781Z,99648.00
2019-05-19T15:15:51.541Z,99644.41
2019-05-19T15:20:56.450Z,99652.46
2019-05-19T15:26:01.646Z,99644.31
2019-05-19T15:31:06.679Z,99645.70
2019-05-19T15:36:11.442Z,99648.41
2019-05-19T15:41:16.183Z,99640.17
2019-05-19T15:46:21.920Z,99649.58
2019-05-19T15:51:28.854Z,99652.03
2019-05-19T15:56:33.428Z,99657.56
2019-05-19T16:01:38.286Z,99644.23
2019-05-19T16:06:43.331Z,99647.89
2019-05-19T16:11:48.206Z,99649.69
2019-05-19T16:16:52.863Z,99651.03
2019-05-19T16:21:57.782Z,99642.30
2019-05-19T16:27:02.740Z,99636.17
2019-05-19T16:32:07.552Z,99630.42
2019-05-19T16:37:12.450Z,99635.60
2019-05-19T16:42:17.280Z,99631.33
2019-05-19T16:47:22.203Z,99634.19
2019-05-19T16:52:26.994Z,99636.45
2019-05-19T16:57:31.798Z,99629.34
2019-05-19T17:02:36.581Z,99622.12
2019-05-19T17:07:41.259Z,99624.77
2019-05-19T17:12:46.093Z,99621.95
2019-05-19T17:17:50.723Z,99628.11
2019-05-19T17:22:55.401Z,99627.53
2019-05-19T17:28:00.151Z,99628.27
2019-05-19T17:33:04.963Z,99629.22
2019-05-19T17:38:09.895Z,99628.20
2019-05-19T17:43:14.618Z,99632.95
2019-05-19T17:48:26.586Z,99632.03
2019-05-19T17:53:25.881Z,99635.07
2019-05-19T17:58:31.893Z,99636.42
2019-05-19T18:03:36.661Z,99640.67
2019-05-19T18:08:41.351Z,99636.84
2019-05-19T18:13:46.105Z,99636.84
2019-05-19T18:18:50.981Z,99646.89
2019-05-19T18:23:55.674Z,99652.19
2019-05-19T18:29:00.594Z,99661.20
2019-05-19T18:34:05.422Z,99670.69
2019-05-19T18:39:10.458Z,99665.27
2019-05-19T18:44:15.111Z,99672.80
2019-05-19T18:49:19.941Z,99664.13
2019-05-19T18:54:24.582Z,99665.78
2019-05-19T18:59:29.292Z,99668.45
2019-05-19T19:04:34.062Z,99674.98
2019-05-19T19:09:38.827Z,99667.06
2019-05-19T19:14:43.602Z,99677.69
2019-05-19T19:19:48.404Z,99677.69
2019-05-19T19:24:53.179Z,99681.80
2019-05-19T19:30:03.734Z,99677.40
2019-05-19T19:35:04.651Z,99683.09
2019-05-19T19:40:10.455Z,99686.29
2019-05-19T19:45:15.499Z,99683.42
2019-05-19T19:50:20.301Z,99683.82
2019-05-19T19:55:25.139Z,99689.17
2019-05-19T20:00:40.628Z,99689.75
2019-05-19T20:05:46.288Z,99699.66
2019-05-19T20:10:51.340Z,99706.38
2019-05-19T20:15:56.589Z,99705.18
2019-05-19T20:21:01.208Z,99704.94
2019-05-19T20:26:06.059Z,99702.97
2019-05-19T20:31:10.853Z,99710.58
2019-05-19T20:36:15.752Z,99713.61
2019-05-19T20:41:20.662Z,99716.89
2019-05-19T20:46:25.498Z,99725.88
2019-05-19T20:51:32.750Z,99722.63
2019-05-19T20:56:37.580Z,99728.09
2019-05-19T21:01:44.935Z,99725.70
2019-05-19T21:06:48.879Z,99724.80
2019-05-19T21:11:53.562Z,99719.35
2019-05-19T21:16:58.261Z,99726.18
2019-05-19T21:22:02.922Z,99723.97
2019-05-19T21:27:07.702Z,99728.38
2019-05-19T21:32:12.461Z,99728.98
2019-05-19T21:37:17.182Z,99723.83
2019-05-19T21:42:22.002Z,99728.20
2019-05-19T21:47:26.681Z,99730.36
2019-05-19T21:52:31.321Z,99717.25
2019-05-19T21:57:36.138Z,99722.45
2019-05-19T22:02:40.838Z,99729.83
2019-05-19T22:07:54.052Z,99725.74
2019-05-19T22:12:58.870Z,99729.04
2019-05-19T22:18:03.841Z,99727.12
2019-05-19T22:23:08.661Z,99728.02
2019-05-19T22:28:13.381Z,99724.73
2019-05-19T22:33:18.181Z,99724.58
2019-05-19T22:38:22.960Z,99723.74
2019-05-19T22:43:27.790Z,99721.92
2019-05-19T22:48:32.622Z,99722.25
2019-05-19T22:53:37.572Z,99719.58
2019-05-19T22:58:42.343Z,99715.79
2019-05-19T23:03:47.101Z,99720.45
2019-05-19T23:08:51.939Z,99714.67
2019-05-19T23:13:56.584Z,99711.35
2019-05-19T23:19:01.301Z,99716.33
2019-05-19T23:24:06.301Z,99718.78
2019-05-19T23:29:10.941Z,99728.97
2019-05-19T23:34:15.666Z,99723.73
2019-05-19T23:39:20.263Z,99725.14
2019-05-19T23:44:24.941Z,99728.72
2019-05-19T23:49:29.827Z,99724.89
2019-05-19T23:54:34.534Z,99723.27
2019-05-19T23:59:39.221Z,99723.01
